sensor_id;sensor_type;location;lat;lon;timestamp;P1;durP1;ratioP1;P2;durP2;ratioP2
1467;SDS011;727;48.892;9.544;2023-02-22T00:00:09;12.15;;;6.00;;
1467;SDS011;727;48.892;9.544;2023-02-22T00:02:53;5.82;;;5.05;;
1467;SDS011;727;48.892;9.544;2023-02-22T00:05:24;6.15;;;4.93;;
1467;SDS011;727;48.892;9.544;2023-02-22T00:07:54;5.47;;;4.97;;
1467;SDS011;727;48.892;9.544;2023-02-22T00:10:24;6.18;;;4.72;;
1467;SDS011;727;48.892;9.544;2023-02-22T00:12:53;6.03;;;5.47;;
1467;SDS011;727;48.892;9.544;2023-02-22T00:15:21;5.32;;;4.20;;
1467;SDS011;727;48.892;9.544;2023-02-22T00:17:51;5.68;;;5.13;;
1467;SDS011;727;48.892;9.544;2023-02-22T00:20:18;6.68;;;5.90;;
1467;SDS011;727;48.892;9.544;2023-02-22T00:22:47;7.07;;;6.10;;
1467;SDS011;727;48.892;9.544;2023-02-22T00:25:19;8.40;;;5.93;;
1467;SDS011;727;48.892;9.544;2023-02-22T00:27:49;8.60;;;5.03;;
1467;SDS011;727;48.892;9.544;2023-02-22T00:30:19;4.65;;;4.20;;
1467;SDS011;727;48.892;9.544;2023-02-22T00:32:47;7.45;;;5.30;;
1467;SDS011;727;48.892;9.544;2023-02-22T00:35:16;5.00;;;4.50;;
1467;SDS011;727;48.892;9.544;2023-02-22T00:37:46;5.95;;;5.38;;
1467;SDS011;727;48.892;9.544;2023-02-22T00:40:13;8.20;;;5.50;;
1467;SDS011;727;48.892;9.544;2023-02-22T00:42:46;5.47;;;4.60;;
1467;SDS011;727;48.892;9.544;2023-02-22T00:45:14;5.53;;;4.60;;
1467;SDS011;727;48.892;9.544;2023-02-22T00:47:43;10.68;;;5.45;;
1467;SDS011;727;48.892;9.544;2023-02-22T00:50:10;13.70;;;7.18;;
1467;SDS011;727;48.892;9.544;2023-02-22T00:52:37;6.68;;;5.28;;
1467;SDS011;727;48.892;9.544;2023-02-22T00:55:05;8.40;;;6.13;;
1467;SDS011;727;48.892;9.544;2023-02-22T00:57:34;10.85;;;5.35;;
1467;SDS011;727;48.892;9.544;2023-02-22T01:00:04;5.35;;;4.85;;
1467;SDS011;727;48.892;9.544;2023-02-22T01:02:36;7.30;;;5.53;;
1467;SDS011;727;48.892;9.544;2023-02-22T01:05:04;7.90;;;5.25;;
1467;SDS011;727;48.892;9.544;2023-02-22T01:07:31;5.65;;;4.70;;
1467;SDS011;727;48.892;9.544;2023-02-22T01:09:58;6.28;;;5.47;;
1467;SDS011;727;48.892;9.544;2023-02-22T01:12:25;6.50;;;5.05;;
1467;SDS011;727;48.892;9.544;2023-02-22T01:14:52;7.47;;;5.00;;
1467;SDS011;727;48.892;9.544;2023-02-22T01:17:24;8.43;;;5.18;;
1467;SDS011;727;48.892;9.544;2023-02-22T01:19:52;7.60;;;6.10;;
1467;SDS011;727;48.892;9.544;2023-02-22T01:22:19;11.80;;;7.15;;
1467;SDS011;727;48.892;9.544;2023-02-22T01:24:46;10.32;;;6.07;;
1467;SDS011;727;48.892;9.544;2023-02-22T01:27:58;8.18;;;5.03;;
1467;SDS011;727;48.892;9.544;2023-02-22T01:30:44;13.40;;;5.95;;
1467;SDS011;727;48.892;9.544;2023-02-22T01:33:28;7.82;;;5.68;;
1467;SDS011;727;48.892;9.544;2023-02-22T01:35:55;9.45;;;5.15;;
1467;SDS011;727;48.892;9.544;2023-02-22T01:38:22;8.68;;;5.55;;
1467;SDS011;727;48.892;9.544;2023-02-22T01:40:49;10.68;;;5.03;;
1467;SDS011;727;48.892;9.544;2023-02-22T01:43:18;5.32;;;4.82;;
1467;SDS011;727;48.892;9.544;2023-02-22T01:45:48;6.72;;;5.20;;
1467;SDS011;727;48.892;9.544;2023-02-22T01:48:23;7.18;;;4.55;;
1467;SDS011;727;48.892;9.544;2023-02-22T01:51:02;6.38;;;5.00;;
1467;SDS011;727;48.892;9.544;2023-02-22T01:53:35;4.80;;;4.40;;
1467;SDS011;727;48.892;9.544;2023-02-22T01:56:05;6.03;;;4.70;;
1467;SDS011;727;48.892;9.544;2023-02-22T01:58:33;6.72;;;5.78;;
1467;SDS011;727;48.892;9.544;2023-02-22T02:01:02;9.73;;;5.13;;
1467;SDS011;727;48.892;9.544;2023-02-22T02:03:31;4.30;;;3.90;;
1467;SDS011;727;48.892;9.544;2023-02-22T02:06:02;6.30;;;4.85;;
1467;SDS011;727;48.892;9.544;2023-02-22T02:08:41;5.43;;;4.85;;
1467;SDS011;727;48.892;9.544;2023-02-22T02:11:17;7.22;;;5.40;;
1467;SDS011;727;48.892;9.544;2023-02-22T02:13:46;5.95;;;5.05;;
1467;SDS011;727;48.892;9.544;2023-02-22T02:16:14;6.72;;;4.60;;
1467;SDS011;727;48.892;9.544;2023-02-22T02:18:41;11.55;;;7.57;;
1467;SDS011;727;48.892;9.544;2023-02-22T02:21:27;18.60;;;10.60;;
1467;SDS011;727;48.892;9.544;2023-02-22T02:27:20;11.05;;;6.85;;
1467;SDS011;727;48.892;9.544;2023-02-22T02:33:00;10.20;;;7.90;;
1467;SDS011;727;48.892;9.544;2023-02-22T02:35:36;15.20;;;7.45;;
1467;SDS011;727;48.892;9.544;2023-02-22T02:38:15;7.63;;;5.57;;
1467;SDS011;727;48.892;9.544;2023-02-22T02:40:46;5.53;;;4.85;;
1467;SDS011;727;48.892;9.544;2023-02-22T02:43:19;5.45;;;4.68;;
1467;SDS011;727;48.892;9.544;2023-02-22T02:45:55;5.93;;;4.28;;
1467;SDS011;727;48.892;9.544;2023-02-22T02:48:29;11.98;;;6.40;;
1467;SDS011;727;48.892;9.544;2023-02-22T02:50:59;7.90;;;5.43;;
1467;SDS011;727;48.892;9.544;2023-02-22T02:53:30;11.60;;;6.68;;
1467;SDS011;727;48.892;9.544;2023-02-22T02:56:00;13.00;;;8.35;;
1467;SDS011;727;48.892;9.544;2023-02-22T02:58:27;12.07;;;7.65;;
1467;SDS011;727;48.892;9.544;2023-02-22T03:00:54;11.23;;;6.93;;
1467;SDS011;727;48.892;9.544;2023-02-22T03:03:34;11.13;;;8.63;;
1467;SDS011;727;48.892;9.544;2023-02-22T03:06:32;12.77;;;7.85;;
1467;SDS011;727;48.892;9.544;2023-02-22T03:09:15;11.73;;;8.45;;
1467;SDS011;727;48.892;9.544;2023-02-22T03:11:53;15.68;;;7.35;;
1467;SDS011;727;48.892;9.544;2023-02-22T03:14:28;10.60;;;7.22;;
1467;SDS011;727;48.892;9.544;2023-02-22T03:17:00;6.35;;;5.30;;
1467;SDS011;727;48.892;9.544;2023-02-22T03:19:39;6.95;;;6.10;;
1467;SDS011;727;48.892;9.544;2023-02-22T03:22:15;8.02;;;4.38;;
1467;SDS011;727;48.892;9.544;2023-02-22T03:24:48;6.07;;;5.50;;
1467;SDS011;727;48.892;9.544;2023-02-22T03:27:19;6.93;;;5.35;;
1467;SDS011;727;48.892;9.544;2023-02-22T03:29:52;8.98;;;6.32;;
1467;SDS011;727;48.892;9.544;2023-02-22T03:32:25;6.32;;;5.72;;
1467;SDS011;727;48.892;9.544;2023-02-22T03:34:57;8.95;;;5.60;;
1467;SDS011;727;48.892;9.544;2023-02-22T03:37:28;5.28;;;4.45;;
1467;SDS011;727;48.892;9.544;2023-02-22T03:39:59;9.02;;;5.18;;
1467;SDS011;727;48.892;9.544;2023-02-22T03:42:37;7.82;;;5.70;;
1467;SDS011;727;48.892;9.544;2023-02-22T03:45:08;8.43;;;6.38;;
1467;SDS011;727;48.892;9.544;2023-02-22T03:47:40;7.93;;;5.00;;
1467;SDS011;727;48.892;9.544;2023-02-22T03:50:13;5.95;;;5.45;;
1467;SDS011;727;48.892;9.544;2023-02-22T03:52:42;5.80;;;4.18;;
1467;SDS011;727;48.892;9.544;2023-02-22T03:55:11;7.07;;;5.40;;
1467;SDS011;727;48.892;9.544;2023-02-22T03:57:42;5.75;;;5.15;;
1467;SDS011;727;48.892;9.544;2023-02-22T04:00:14;6.95;;;4.75;;
1467;SDS011;727;48.892;9.544;2023-02-22T04:02:47;8.90;;;4.95;;
1467;SDS011;727;48.892;9.544;2023-02-22T04:05:15;5.53;;;4.78;;
1467;SDS011;727;48.892;9.544;2023-02-22T04:07:42;5.45;;;4.95;;
1467;SDS011;727;48.892;9.544;2023-02-22T04:10:10;5.78;;;4.50;;
1467;SDS011;727;48.892;9.544;2023-02-22T04:12:38;10.90;;;5.30;;
1467;SDS011;727;48.892;9.544;2023-02-22T04:15:05;6.22;;;5.63;;
1467;SDS011;727;48.892;9.544;2023-02-22T04:17:33;9.63;;;5.15;;
1467;SDS011;727;48.892;9.544;2023-02-22T04:20:00;8.02;;;5.55;;
1467;SDS011;727;48.892;9.544;2023-02-22T04:22:29;11.40;;;5.75;;
1467;SDS011;727;48.892;9.544;2023-02-22T04:24:56;8.55;;;5.63;;
1467;SDS011;727;48.892;9.544;2023-02-22T04:27:22;14.35;;;6.10;;
1467;SDS011;727;48.892;9.544;2023-02-22T04:29:49;6.47;;;5.75;;
1467;SDS011;727;48.892;9.544;2023-02-22T04:32:16;7.30;;;5.00;;
1467;SDS011;727;48.892;9.544;2023-02-22T04:34:42;6.50;;;5.40;;
1467;SDS011;727;48.892;9.544;2023-02-22T04:37:09;8.43;;;5.38;;
1467;SDS011;727;48.892;9.544;2023-02-22T04:39:38;7.00;;;5.53;;
1467;SDS011;727;48.892;9.544;2023-02-22T04:42:04;6.68;;;5.15;;
1467;SDS011;727;48.892;9.544;2023-02-22T04:44:31;7.20;;;5.25;;
1467;SDS011;727;48.892;9.544;2023-02-22T04:46:58;5.45;;;4.57;;
1467;SDS011;727;48.892;9.544;2023-02-22T04:49:25;6.30;;;5.70;;
1467;SDS011;727;48.892;9.544;2023-02-22T04:51:52;6.35;;;5.55;;
1467;SDS011;727;48.892;9.544;2023-02-22T04:54:18;5.60;;;4.72;;
1467;SDS011;727;48.892;9.544;2023-02-22T04:56:46;6.40;;;5.00;;
1467;SDS011;727;48.892;9.544;2023-02-22T04:59:13;7.72;;;5.40;;
1467;SDS011;727;48.892;9.544;2023-02-22T05:01:40;6.03;;;4.97;;
1467;SDS011;727;48.892;9.544;2023-02-22T05:04:07;5.63;;;5.00;;
1467;SDS011;727;48.892;9.544;2023-02-22T05:06:33;11.43;;;8.80;;
1467;SDS011;727;48.892;9.544;2023-02-22T05:09:00;46.60;;;33.28;;
1467;SDS011;727;48.892;9.544;2023-02-22T05:11:27;28.40;;;20.80;;
1467;SDS011;727;48.892;9.544;2023-02-22T05:13:56;9.70;;;8.52;;
1467;SDS011;727;48.892;9.544;2023-02-22T05:16:22;9.65;;;6.97;;
1467;SDS011;727;48.892;9.544;2023-02-22T05:18:50;8.27;;;6.68;;
1467;SDS011;727;48.892;9.544;2023-02-22T05:21:17;7.10;;;5.38;;
1467;SDS011;727;48.892;9.544;2023-02-22T05:23:43;7.70;;;6.40;;
1467;SDS011;727;48.892;9.544;2023-02-22T05:26:10;6.30;;;5.70;;
1467;SDS011;727;48.892;9.544;2023-02-22T05:28:37;5.97;;;5.32;;
1467;SDS011;727;48.892;9.544;2023-02-22T05:31:05;8.52;;;6.50;;
1467;SDS011;727;48.892;9.544;2023-02-22T05:33:32;12.50;;;7.25;;
1467;SDS011;727;48.892;9.544;2023-02-22T05:35:59;8.77;;;6.15;;
1467;SDS011;727;48.892;9.544;2023-02-22T05:38:26;7.75;;;5.95;;
1467;SDS011;727;48.892;9.544;2023-02-22T05:40:53;8.75;;;7.10;;
1467;SDS011;727;48.892;9.544;2023-02-22T05:43:24;7.28;;;6.57;;
1467;SDS011;727;48.892;9.544;2023-02-22T05:45:50;6.53;;;5.82;;
1467;SDS011;727;48.892;9.544;2023-02-22T05:48:18;7.90;;;5.75;;
1467;SDS011;727;48.892;9.544;2023-02-22T05:50:45;7.85;;;6.00;;
1467;SDS011;727;48.892;9.544;2023-02-22T05:53:13;6.95;;;6.25;;
1467;SDS011;727;48.892;9.544;2023-02-22T05:55:40;8.15;;;5.80;;
1467;SDS011;727;48.892;9.544;2023-02-22T05:58:07;7.85;;;6.05;;
1467;SDS011;727;48.892;9.544;2023-02-22T06:00:33;8.73;;;6.32;;
1467;SDS011;727;48.892;9.544;2023-02-22T06:03:01;7.97;;;4.88;;
1467;SDS011;727;48.892;9.544;2023-02-22T06:05:30;6.22;;;5.03;;
1467;SDS011;727;48.892;9.544;2023-02-22T06:07:58;9.43;;;6.07;;
1467;SDS011;727;48.892;9.544;2023-02-22T06:10:25;12.48;;;6.70;;
1467;SDS011;727;48.892;9.544;2023-02-22T06:12:53;13.45;;;7.97;;
1467;SDS011;727;48.892;9.544;2023-02-22T06:15:21;15.05;;;9.55;;
1467;SDS011;727;48.892;9.544;2023-02-22T06:17:49;8.82;;;7.13;;
1467;SDS011;727;48.892;9.544;2023-02-22T06:20:17;8.93;;;6.85;;
1467;SDS011;727;48.892;9.544;2023-02-22T06:22:48;6.70;;;5.38;;
1467;SDS011;727;48.892;9.544;2023-02-22T06:25:16;6.43;;;5.80;;
1467;SDS011;727;48.892;9.544;2023-02-22T06:27:44;8.52;;;5.72;;
1467;SDS011;727;48.892;9.544;2023-02-22T06:30:11;12.65;;;7.07;;
1467;SDS011;727;48.892;9.544;2023-02-22T06:32:39;7.20;;;6.50;;
1467;SDS011;727;48.892;9.544;2023-02-22T06:35:06;9.18;;;6.20;;
1467;SDS011;727;48.892;9.544;2023-02-22T06:37:33;7.88;;;6.22;;
1467;SDS011;727;48.892;9.544;2023-02-22T06:40:02;9.07;;;5.72;;
1467;SDS011;727;48.892;9.544;2023-02-22T06:42:28;15.13;;;6.80;;
1467;SDS011;727;48.892;9.544;2023-02-22T06:44:55;6.50;;;6.00;;
1467;SDS011;727;48.892;9.544;2023-02-22T06:47:22;12.07;;;6.65;;
1467;SDS011;727;48.892;9.544;2023-02-22T06:49:51;11.75;;;6.15;;
1467;SDS011;727;48.892;9.544;2023-02-22T06:52:18;14.35;;;6.50;;
1467;SDS011;727;48.892;9.544;2023-02-22T06:54:46;12.18;;;7.93;;
1467;SDS011;727;48.892;9.544;2023-02-22T06:57:15;14.35;;;8.10;;
1467;SDS011;727;48.892;9.544;2023-02-22T06:59:42;10.57;;;7.53;;
1467;SDS011;727;48.892;9.544;2023-02-22T07:02:09;9.48;;;6.90;;
1467;SDS011;727;48.892;9.544;2023-02-22T07:04:37;8.40;;;6.25;;
1467;SDS011;727;48.892;9.544;2023-02-22T07:07:04;11.23;;;8.95;;
1467;SDS011;727;48.892;9.544;2023-02-22T07:09:31;9.38;;;7.30;;
1467;SDS011;727;48.892;9.544;2023-02-22T07:11:57;8.77;;;7.63;;
1467;SDS011;727;48.892;9.544;2023-02-22T07:14:26;11.00;;;7.63;;
1467;SDS011;727;48.892;9.544;2023-02-22T07:16:52;12.18;;;7.75;;
1467;SDS011;727;48.892;9.544;2023-02-22T07:19:19;14.52;;;9.52;;
1467;SDS011;727;48.892;9.544;2023-02-22T07:21:46;27.92;;;15.43;;
1467;SDS011;727;48.892;9.544;2023-02-22T07:24:12;30.63;;;18.98;;
1467;SDS011;727;48.892;9.544;2023-02-22T07:26:39;39.13;;;20.08;;
1467;SDS011;727;48.892;9.544;2023-02-22T07:29:07;33.50;;;19.40;;
1467;SDS011;727;48.892;9.544;2023-02-22T07:31:36;34.22;;;19.35;;
1467;SDS011;727;48.892;9.544;2023-02-22T07:34:04;45.92;;;26.80;;
1467;SDS011;727;48.892;9.544;2023-02-22T07:36:31;64.22;;;30.38;;
1467;SDS011;727;48.892;9.544;2023-02-22T07:38:57;52.50;;;28.70;;
1467;SDS011;727;48.892;9.544;2023-02-22T07:41:24;50.42;;;26.75;;
1467;SDS011;727;48.892;9.544;2023-02-22T07:43:53;13.20;;;11.40;;
1467;SDS011;727;48.892;9.544;2023-02-22T07:46:19;11.57;;;10.18;;
1467;SDS011;727;48.892;9.544;2023-02-22T07:48:47;16.42;;;10.90;;
1467;SDS011;727;48.892;9.544;2023-02-22T07:51:15;17.50;;;13.43;;
1467;SDS011;727;48.892;9.544;2023-02-22T07:53:44;12.90;;;9.40;;
1467;SDS011;727;48.892;9.544;2023-02-22T07:56:11;12.10;;;10.07;;
1467;SDS011;727;48.892;9.544;2023-02-22T07:58:38;14.50;;;8.75;;
1467;SDS011;727;48.892;9.544;2023-02-22T08:01:05;10.10;;;7.50;;
1467;SDS011;727;48.892;9.544;2023-02-22T08:03:33;8.48;;;7.68;;
1467;SDS011;727;48.892;9.544;2023-02-22T08:06:03;8.95;;;6.93;;
1467;SDS011;727;48.892;9.544;2023-02-22T08:08:31;9.27;;;6.25;;
1467;SDS011;727;48.892;9.544;2023-02-22T08:10:58;6.90;;;6.03;;
1467;SDS011;727;48.892;9.544;2023-02-22T08:13:25;6.32;;;5.30;;
1467;SDS011;727;48.892;9.544;2023-02-22T08:15:52;11.70;;;6.85;;
1467;SDS011;727;48.892;9.544;2023-02-22T08:18:19;10.30;;;6.35;;
1467;SDS011;727;48.892;9.544;2023-02-22T08:20:48;8.85;;;6.40;;
1467;SDS011;727;48.892;9.544;2023-02-22T08:23:18;8.25;;;6.50;;
1467;SDS011;727;48.892;9.544;2023-02-22T08:25:47;9.57;;;8.20;;
1467;SDS011;727;48.892;9.544;2023-02-22T08:28:14;22.05;;;18.20;;
1467;SDS011;727;48.892;9.544;2023-02-22T08:30:43;18.92;;;13.50;;
1467;SDS011;727;48.892;9.544;2023-02-22T08:33:11;12.70;;;9.13;;
1467;SDS011;727;48.892;9.544;2023-02-22T08:35:40;12.80;;;7.50;;
1467;SDS011;727;48.892;9.544;2023-02-22T08:38:13;7.65;;;6.95;;
1467;SDS011;727;48.892;9.544;2023-02-22T08:40:43;13.13;;;6.00;;
1467;SDS011;727;48.892;9.544;2023-02-22T08:43:10;6.43;;;5.80;;
1467;SDS011;727;48.892;9.544;2023-02-22T08:45:38;5.55;;;4.57;;
1467;SDS011;727;48.892;9.544;2023-02-22T08:48:04;5.43;;;4.93;;
1467;SDS011;727;48.892;9.544;2023-02-22T08:50:31;6.93;;;5.15;;
1467;SDS011;727;48.892;9.544;2023-02-22T08:53:00;5.35;;;4.50;;
1467;SDS011;727;48.892;9.544;2023-02-22T08:55:28;5.37;;;4.83;;
1467;SDS011;727;48.892;9.544;2023-02-22T08:57:57;4.90;;;4.50;;
1467;SDS011;727;48.892;9.544;2023-02-22T09:00:25;6.30;;;4.90;;
1467;SDS011;727;48.892;9.544;2023-02-22T09:02:53;6.20;;;5.30;;
1467;SDS011;727;48.892;9.544;2023-02-22T09:05:20;5.53;;;5.03;;
1467;SDS011;727;48.892;9.544;2023-02-22T09:07:47;6.87;;;5.40;;
1467;SDS011;727;48.892;9.544;2023-02-22T09:10:15;6.53;;;5.43;;
1467;SDS011;727;48.892;9.544;2023-02-22T09:12:42;10.87;;;5.90;;
1467;SDS011;727;48.892;9.544;2023-02-22T09:15:13;5.90;;;5.40;;
1467;SDS011;727;48.892;9.544;2023-02-22T09:17:40;6.40;;;5.10;;
1467;SDS011;727;48.892;9.544;2023-02-22T09:20:08;6.77;;;6.00;;
1467;SDS011;727;48.892;9.544;2023-02-22T09:22:36;8.83;;;6.90;;
1467;SDS011;727;48.892;9.544;2023-02-22T09:25:04;9.10;;;6.87;;
1467;SDS011;727;48.892;9.544;2023-02-22T09:27:31;7.27;;;6.67;;
1467;SDS011;727;48.892;9.544;2023-02-22T09:29:58;6.37;;;5.77;;
1467;SDS011;727;48.892;9.544;2023-02-22T09:32:26;9.50;;;7.53;;
1467;SDS011;727;48.892;9.544;2023-02-22T09:34:53;8.33;;;7.43;;
1467;SDS011;727;48.892;9.544;2023-02-22T09:37:20;7.53;;;6.73;;
1467;SDS011;727;48.892;9.544;2023-02-22T09:39:47;6.70;;;6.03;;
1467;SDS011;727;48.892;9.544;2023-02-22T09:42:15;8.00;;;7.20;;
1467;SDS011;727;48.892;9.544;2023-02-22T09:44:54;9.67;;;7.20;;
1467;SDS011;727;48.892;9.544;2023-02-22T09:47:35;9.57;;;6.50;;
1467;SDS011;727;48.892;9.544;2023-02-22T09:50:05;7.70;;;6.87;;
1467;SDS011;727;48.892;9.544;2023-02-22T09:52:40;9.20;;;6.80;;
1467;SDS011;727;48.892;9.544;2023-02-22T09:55:21;8.03;;;7.20;;
1467;SDS011;727;48.892;9.544;2023-02-22T09:57:55;11.10;;;6.77;;
1467;SDS011;727;48.892;9.544;2023-02-22T10:00:26;9.10;;;7.67;;
1467;SDS011;727;48.892;9.544;2023-02-22T10:02:59;7.30;;;5.73;;
1467;SDS011;727;48.892;9.544;2023-02-22T10:05:36;6.60;;;6.00;;
1467;SDS011;727;48.892;9.544;2023-02-22T10:08:09;8.97;;;6.00;;
1467;SDS011;727;48.892;9.544;2023-02-22T10:10:39;7.40;;;5.73;;
1467;SDS011;727;48.892;9.544;2023-02-22T10:13:13;6.30;;;5.60;;
1467;SDS011;727;48.892;9.544;2023-02-22T10:15:49;7.70;;;5.90;;
1467;SDS011;727;48.892;9.544;2023-02-22T10:21:34;6.03;;;5.17;;
1467;SDS011;727;48.892;9.544;2023-02-22T10:24:16;4.67;;;4.10;;
1467;SDS011;727;48.892;9.544;2023-02-22T10:26:57;5.77;;;5.27;;
1467;SDS011;727;48.892;9.544;2023-02-22T10:29:29;9.50;;;6.40;;
1467;SDS011;727;48.892;9.544;2023-02-22T10:32:02;7.00;;;5.30;;
1467;SDS011;727;48.892;9.544;2023-02-22T10:34:32;6.80;;;6.10;;
1467;SDS011;727;48.892;9.544;2023-02-22T10:37:07;5.97;;;5.40;;
1467;SDS011;727;48.892;9.544;2023-02-22T10:39:46;9.40;;;6.57;;
1467;SDS011;727;48.892;9.544;2023-02-22T10:42:16;5.80;;;5.00;;
1467;SDS011;727;48.892;9.544;2023-02-22T10:44:46;7.60;;;5.40;;
1467;SDS011;727;48.892;9.544;2023-02-22T10:47:13;6.67;;;5.57;;
1467;SDS011;727;48.892;9.544;2023-02-22T10:49:45;6.13;;;5.30;;
1467;SDS011;727;48.892;9.544;2023-02-22T10:52:16;7.73;;;5.90;;
1467;SDS011;727;48.892;9.544;2023-02-22T10:54:50;5.93;;;5.33;;
1467;SDS011;727;48.892;9.544;2023-02-22T10:57:19;10.57;;;6.20;;
1467;SDS011;727;48.892;9.544;2023-02-22T10:59:47;6.13;;;5.53;;
1467;SDS011;727;48.892;9.544;2023-02-22T11:02:17;8.33;;;5.70;;
1467;SDS011;727;48.892;9.544;2023-02-22T11:04:49;6.60;;;4.90;;
1467;SDS011;727;48.892;9.544;2023-02-22T11:07:19;11.97;;;5.80;;
1467;SDS011;727;48.892;9.544;2023-02-22T11:09:52;7.80;;;5.33;;
1467;SDS011;727;48.892;9.544;2023-02-22T11:12:25;7.87;;;6.27;;
1467;SDS011;727;48.892;9.544;2023-02-22T11:14:57;6.17;;;5.57;;
1467;SDS011;727;48.892;9.544;2023-02-22T11:17:44;5.60;;;5.10;;
1467;SDS011;727;48.892;9.544;2023-02-22T11:20:21;6.80;;;5.50;;
1467;SDS011;727;48.892;9.544;2023-02-22T11:22:49;8.83;;;5.60;;
1467;SDS011;727;48.892;9.544;2023-02-22T11:25:19;6.83;;;6.13;;
1467;SDS011;727;48.892;9.544;2023-02-22T11:27:49;5.80;;;4.50;;
1467;SDS011;727;48.892;9.544;2023-02-22T11:30:21;8.00;;;4.87;;
1467;SDS011;727;48.892;9.544;2023-02-22T11:32:55;8.43;;;5.97;;
1467;SDS011;727;48.892;9.544;2023-02-22T11:35:33;6.03;;;5.30;;
1467;SDS011;727;48.892;9.544;2023-02-22T11:38:10;6.47;;;5.20;;
1467;SDS011;727;48.892;9.544;2023-02-22T11:40:41;7.00;;;5.30;;
1467;SDS011;727;48.892;9.544;2023-02-22T11:43:12;5.07;;;4.50;;
1467;SDS011;727;48.892;9.544;2023-02-22T11:45:54;6.27;;;5.47;;
1467;SDS011;727;48.892;9.544;2023-02-22T11:48:27;6.90;;;5.33;;
1467;SDS011;727;48.892;9.544;2023-02-22T11:51:05;7.73;;;5.60;;
1467;SDS011;727;48.892;9.544;2023-02-22T11:53:44;9.00;;;7.17;;
1467;SDS011;727;48.892;9.544;2023-02-22T11:56:27;8.40;;;6.83;;
1467;SDS011;727;48.892;9.544;2023-02-22T11:59:01;8.20;;;5.73;;
1467;SDS011;727;48.892;9.544;2023-02-22T12:01:35;10.73;;;7.13;;
1467;SDS011;727;48.892;9.544;2023-02-22T12:07:35;8.40;;;5.73;;
1467;SDS011;727;48.892;9.544;2023-02-22T12:10:30;9.23;;;6.67;;
1467;SDS011;727;48.892;9.544;2023-02-22T12:13:19;9.37;;;7.23;;
1467;SDS011;727;48.892;9.544;2023-02-22T12:16:02;6.40;;;5.10;;
1467;SDS011;727;48.892;9.544;2023-02-22T12:18:36;10.40;;;7.10;;
1467;SDS011;727;48.892;9.544;2023-02-22T12:21:13;8.23;;;6.60;;
1467;SDS011;727;48.892;9.544;2023-02-22T12:23:48;9.10;;;7.67;;
1467;SDS011;727;48.892;9.544;2023-02-22T12:26:23;6.67;;;6.07;;
1467;SDS011;727;48.892;9.544;2023-02-22T12:28:55;8.60;;;7.53;;
1467;SDS011;727;48.892;9.544;2023-02-22T12:31:29;9.67;;;7.83;;
1467;SDS011;727;48.892;9.544;2023-02-22T12:34:03;11.60;;;7.90;;
1467;SDS011;727;48.892;9.544;2023-02-22T12:36:37;11.70;;;7.57;;
1467;SDS011;727;48.892;9.544;2023-02-22T12:39:25;13.10;;;7.00;;
1467;SDS011;727;48.892;9.544;2023-02-22T12:41:58;11.20;;;6.50;;
1467;SDS011;727;48.892;9.544;2023-02-22T12:44:30;8.47;;;6.53;;
1467;SDS011;727;48.892;9.544;2023-02-22T12:47:00;9.10;;;6.80;;
1467;SDS011;727;48.892;9.544;2023-02-22T12:49:32;9.50;;;7.40;;
1467;SDS011;727;48.892;9.544;2023-02-22T12:52:06;6.93;;;6.27;;
1467;SDS011;727;48.892;9.544;2023-02-22T12:54:43;7.50;;;6.00;;
1467;SDS011;727;48.892;9.544;2023-02-22T12:57:15;12.70;;;6.33;;
1467;SDS011;727;48.892;9.544;2023-02-22T12:59:49;6.83;;;6.13;;
1467;SDS011;727;48.892;9.544;2023-02-22T13:02:20;8.90;;;6.73;;
1467;SDS011;727;48.892;9.544;2023-02-22T13:04:52;15.20;;;7.27;;
1467;SDS011;727;48.892;9.544;2023-02-22T13:07:24;8.90;;;6.10;;
1467;SDS011;727;48.892;9.544;2023-02-22T13:10:12;9.83;;;6.70;;
1467;SDS011;727;48.892;9.544;2023-02-22T13:13:03;10.60;;;7.00;;
1467;SDS011;727;48.892;9.544;2023-02-22T13:15:39;9.00;;;6.73;;
1467;SDS011;727;48.892;9.544;2023-02-22T13:18:13;9.03;;;6.83;;
1467;SDS011;727;48.892;9.544;2023-02-22T13:20:49;10.77;;;7.93;;
1467;SDS011;727;48.892;9.544;2023-02-22T13:23:24;10.87;;;7.00;;
1467;SDS011;727;48.892;9.544;2023-02-22T13:26:00;11.43;;;7.67;;
1467;SDS011;727;48.892;9.544;2023-02-22T13:28:34;7.63;;;6.77;;
1467;SDS011;727;48.892;9.544;2023-02-22T13:31:09;10.63;;;7.13;;
1467;SDS011;727;48.892;9.544;2023-02-22T13:33:55;14.90;;;8.97;;
1467;SDS011;727;48.892;9.544;2023-02-22T13:36:52;12.77;;;8.70;;
1467;SDS011;727;48.892;9.544;2023-02-22T13:39:49;15.47;;;8.23;;
1467;SDS011;727;48.892;9.544;2023-02-22T13:42:55;15.30;;;9.50;;
1467;SDS011;727;48.892;9.544;2023-02-22T13:45:59;8.37;;;7.43;;
1467;SDS011;727;48.892;9.544;2023-02-22T13:51:42;18.57;;;8.90;;
1467;SDS011;727;48.892;9.544;2023-02-22T13:54:14;7.60;;;6.20;;
1467;SDS011;727;48.892;9.544;2023-02-22T13:56:46;8.57;;;7.50;;
1467;SDS011;727;48.892;9.544;2023-02-22T13:59:27;10.63;;;7.43;;
1467;SDS011;727;48.892;9.544;2023-02-22T14:01:56;11.43;;;8.33;;
1467;SDS011;727;48.892;9.544;2023-02-22T14:10:38;17.53;;;9.10;;
1467;SDS011;727;48.892;9.544;2023-02-22T14:13:11;10.00;;;7.53;;
1467;SDS011;727;48.892;9.544;2023-02-22T14:18:46;8.80;;;7.90;;
1467;SDS011;727;48.892;9.544;2023-02-22T14:21:16;15.93;;;10.20;;
1467;SDS011;727;48.892;9.544;2023-02-22T14:23:45;12.43;;;9.87;;
1467;SDS011;727;48.892;9.544;2023-02-22T14:26:14;14.57;;;13.27;;
1467;SDS011;727;48.892;9.544;2023-02-22T14:28:47;17.20;;;11.17;;
1467;SDS011;727;48.892;9.544;2023-02-22T14:31:20;12.90;;;9.37;;
1467;SDS011;727;48.892;9.544;2023-02-22T14:34:00;11.30;;;8.40;;
1467;SDS011;727;48.892;9.544;2023-02-22T14:36:34;19.17;;;9.63;;
1467;SDS011;727;48.892;9.544;2023-02-22T14:39:19;11.47;;;8.90;;
1467;SDS011;727;48.892;9.544;2023-02-22T14:41:54;12.80;;;10.47;;
1467;SDS011;727;48.892;9.544;2023-02-22T14:44:26;16.83;;;10.33;;
1467;SDS011;727;48.892;9.544;2023-02-22T14:46:58;10.97;;;9.20;;
1467;SDS011;727;48.892;9.544;2023-02-22T14:49:30;10.97;;;8.90;;
1467;SDS011;727;48.892;9.544;2023-02-22T14:52:04;14.30;;;11.27;;
1467;SDS011;727;48.892;9.544;2023-02-22T14:54:47;16.33;;;11.17;;
1467;SDS011;727;48.892;9.544;2023-02-22T14:57:24;11.80;;;9.90;;
1467;SDS011;727;48.892;9.544;2023-02-22T15:00:00;16.10;;;10.60;;
1467;SDS011;727;48.892;9.544;2023-02-22T15:02:45;11.83;;;10.60;;
1467;SDS011;727;48.892;9.544;2023-02-22T15:05:14;12.47;;;10.23;;
1467;SDS011;727;48.892;9.544;2023-02-22T15:07:50;13.33;;;9.33;;
1467;SDS011;727;48.892;9.544;2023-02-22T15:10:21;11.73;;;10.13;;
1467;SDS011;727;48.892;9.544;2023-02-22T15:12:50;18.67;;;9.87;;
1467;SDS011;727;48.892;9.544;2023-02-22T15:15:33;14.30;;;10.30;;
1467;SDS011;727;48.892;9.544;2023-02-22T15:18:02;12.63;;;9.27;;
1467;SDS011;727;48.892;9.544;2023-02-22T15:20:31;16.07;;;10.37;;
1467;SDS011;727;48.892;9.544;2023-02-22T15:23:01;11.40;;;9.67;;
1467;SDS011;727;48.892;9.544;2023-02-22T15:25:28;12.03;;;9.80;;
1467;SDS011;727;48.892;9.544;2023-02-22T15:27:59;16.20;;;10.70;;
1467;SDS011;727;48.892;9.544;2023-02-22T15:30:29;15.40;;;10.77;;
1467;SDS011;727;48.892;9.544;2023-02-22T15:33:14;16.80;;;11.37;;
1467;SDS011;727;48.892;9.544;2023-02-22T15:35:41;15.57;;;10.63;;
1467;SDS011;727;48.892;9.544;2023-02-22T15:38:17;17.93;;;10.20;;
1467;SDS011;727;48.892;9.544;2023-02-22T15:40:46;14.67;;;9.70;;
1467;SDS011;727;48.892;9.544;2023-02-22T15:43:26;12.63;;;9.13;;
1467;SDS011;727;48.892;9.544;2023-02-22T15:45:57;17.60;;;11.43;;
1467;SDS011;727;48.892;9.544;2023-02-22T15:48:28;17.17;;;10.27;;
1467;SDS011;727;48.892;9.544;2023-02-22T15:51:06;15.40;;;9.20;;
1467;SDS011;727;48.892;9.544;2023-02-22T15:53:39;14.73;;;10.20;;
1467;SDS011;727;48.892;9.544;2023-02-22T15:56:10;16.37;;;10.37;;
1467;SDS011;727;48.892;9.544;2023-02-22T15:58:40;15.27;;;10.17;;
1467;SDS011;727;48.892;9.544;2023-02-22T16:01:09;15.70;;;12.43;;
1467;SDS011;727;48.892;9.544;2023-02-22T16:03:42;15.63;;;10.87;;
1467;SDS011;727;48.892;9.544;2023-02-22T16:06:12;18.73;;;12.50;;
1467;SDS011;727;48.892;9.544;2023-02-22T16:08:46;21.73;;;11.50;;
1467;SDS011;727;48.892;9.544;2023-02-22T16:11:15;19.03;;;11.60;;
1467;SDS011;727;48.892;9.544;2023-02-22T16:13:53;16.10;;;11.07;;